sensor_id;sensor_type;location;lat;lon;timestamp;P1;durP1;ratioP1;P2;durP2;ratioP2
81160;SDS011;70637;48.514;14.500;2023-07-29T00:01:35;5.72;;;3.67;;
81160;SDS011;70637;48.514;14.500;2023-07-29T00:04:01;3.65;;;3.25;;
81160;SDS011;70637;48.514;14.500;2023-07-29T00:06:27;4.03;;;3.40;;
81160;SDS011;70637;48.514;14.500;2023-07-29T00:08:53;4.88;;;3.80;;
81160;SDS011;70637;48.514;14.500;2023-07-29T00:11:21;4.50;;;3.88;;
81160;SDS011;70637;48.514;14.500;2023-07-29T00:13:47;4.68;;;3.70;;
81160;SDS011;70637;48.514;14.500;2023-07-29T00:16:15;5.10;;;3.38;;
81160;SDS011;70637;48.514;14.500;2023-07-29T00:18:42;4.25;;;2.90;;
81160;SDS011;70637;48.514;14.500;2023-07-29T00:21:08;3.88;;;3.00;;
81160;SDS011;70637;48.514;14.500;2023-07-29T00:23:34;3.67;;;2.78;;
81160;SDS011;70637;48.514;14.500;2023-07-29T00:25:59;5.38;;;3.42;;
81160;SDS011;70637;48.514;14.500;2023-07-29T00:28:25;5.35;;;3.88;;
81160;SDS011;70637;48.514;14.500;2023-07-29T00:30:51;5.68;;;3.67;;
81160;SDS011;70637;48.514;14.500;2023-07-29T00:33:16;6.32;;;3.70;;
81160;SDS011;70637;48.514;14.500;2023-07-29T00:35:42;4.43;;;3.60;;
81160;SDS011;70637;48.514;14.500;2023-07-29T00:38:07;5.22;;;3.85;;
81160;SDS011;70637;48.514;14.500;2023-07-29T00:40:35;8.25;;;3.72;;
81160;SDS011;70637;48.514;14.500;2023-07-29T00:43:02;4.50;;;3.78;;
81160;SDS011;70637;48.514;14.500;2023-07-29T00:45:27;7.00;;;3.38;;
81160;SDS011;70637;48.514;14.500;2023-07-29T00:47:55;6.45;;;3.22;;
81160;SDS011;70637;48.514;14.500;2023-07-29T00:50:21;4.25;;;3.40;;
81160;SDS011;70637;48.514;14.500;2023-07-29T00:52:48;3.83;;;3.10;;
81160;SDS011;70637;48.514;14.500;2023-07-29T00:55:14;3.90;;;3.15;;
81160;SDS011;70637;48.514;14.500;2023-07-29T00:57:39;4.45;;;3.30;;
81160;SDS011;70637;48.514;14.500;2023-07-29T01:00:07;5.63;;;2.80;;
81160;SDS011;70637;48.514;14.500;2023-07-29T01:02:33;3.65;;;2.83;;
81160;SDS011;70637;48.514;14.500;2023-07-29T01:05:00;4.75;;;2.75;;
81160;SDS011;70637;48.514;14.500;2023-07-29T01:17:49;4.25;;;3.13;;
81160;SDS011;70637;48.514;14.500;2023-07-29T01:20:20;4.78;;;3.28;;
81160;SDS011;70637;48.514;14.500;2023-07-29T01:22:49;3.35;;;2.70;;
81160;SDS011;70637;48.514;14.500;2023-07-29T01:25:15;4.32;;;3.05;;
81160;SDS011;70637;48.514;14.500;2023-07-29T01:27:42;4.15;;;3.20;;
81160;SDS011;70637;48.514;14.500;2023-07-29T01:30:08;4.20;;;2.95;;
81160;SDS011;70637;48.514;14.500;2023-07-29T01:32:52;4.57;;;3.40;;
81160;SDS011;70637;48.514;14.500;2023-07-29T01:37:59;3.75;;;2.97;;
81160;SDS011;70637;48.514;14.500;2023-07-29T01:40:30;3.75;;;2.60;;
81160;SDS011;70637;48.514;14.500;2023-07-29T01:42:56;5.75;;;2.40;;
81160;SDS011;70637;48.514;14.500;2023-07-29T01:45:25;3.28;;;2.22;;
81160;SDS011;70637;48.514;14.500;2023-07-29T01:47:51;4.05;;;2.25;;
81160;SDS011;70637;48.514;14.500;2023-07-29T01:50:17;3.72;;;2.42;;
81160;SDS011;70637;48.514;14.500;2023-07-29T01:52:42;3.08;;;2.20;;
81160;SDS011;70637;48.514;14.500;2023-07-29T01:55:08;3.63;;;2.13;;
81160;SDS011;70637;48.514;14.500;2023-07-29T01:57:34;3.25;;;2.05;;
81160;SDS011;70637;48.514;14.500;2023-07-29T01:59:59;3.22;;;2.10;;
81160;SDS011;70637;48.514;14.500;2023-07-29T02:02:25;3.15;;;2.30;;
81160;SDS011;70637;48.514;14.500;2023-07-29T02:04:51;3.13;;;2.17;;
81160;SDS011;70637;48.514;14.500;2023-07-29T02:07:20;3.60;;;2.00;;
81160;SDS011;70637;48.514;14.500;2023-07-29T02:09:46;2.83;;;1.98;;
81160;SDS011;70637;48.514;14.500;2023-07-29T02:12:12;3.13;;;2.00;;
81160;SDS011;70637;48.514;14.500;2023-07-29T02:14:37;3.15;;;2.10;;
81160;SDS011;70637;48.514;14.500;2023-07-29T02:17:05;3.13;;;1.83;;
81160;SDS011;70637;48.514;14.500;2023-07-29T02:19:30;2.58;;;1.80;;
81160;SDS011;70637;48.514;14.500;2023-07-29T02:21:56;3.38;;;1.90;;
81160;SDS011;70637;48.514;14.500;2023-07-29T02:24:22;4.22;;;2.20;;
81160;SDS011;70637;48.514;14.500;2023-07-29T02:26:47;4.13;;;2.15;;
81160;SDS011;70637;48.514;14.500;2023-07-29T02:29:13;4.15;;;2.00;;
81160;SDS011;70637;48.514;14.500;2023-07-29T02:31:38;4.07;;;2.20;;
81160;SDS011;70637;48.514;14.500;2023-07-29T02:34:04;3.83;;;1.92;;
81160;SDS011;70637;48.514;14.500;2023-07-29T02:36:30;2.97;;;1.90;;
81160;SDS011;70637;48.514;14.500;2023-07-29T02:38:56;3.00;;;2.00;;
81160;SDS011;70637;48.514;14.500;2023-07-29T02:41:22;3.22;;;1.95;;
81160;SDS011;70637;48.514;14.500;2023-07-29T02:43:48;2.80;;;1.80;;
81160;SDS011;70637;48.514;14.500;2023-07-29T02:46:14;3.75;;;2.03;;
81160;SDS011;70637;48.514;14.500;2023-07-29T02:48:39;2.80;;;2.00;;
81160;SDS011;70637;48.514;14.500;2023-07-29T02:51:06;2.30;;;1.85;;
81160;SDS011;70637;48.514;14.500;2023-07-29T02:53:31;3.00;;;2.20;;
81160;SDS011;70637;48.514;14.500;2023-07-29T02:55:57;2.95;;;1.90;;
81160;SDS011;70637;48.514;14.500;2023-07-29T02:58:23;3.10;;;1.98;;
81160;SDS011;70637;48.514;14.500;2023-07-29T03:00:48;3.78;;;1.98;;
81160;SDS011;70637;48.514;14.500;2023-07-29T03:03:15;4.32;;;2.00;;
81160;SDS011;70637;48.514;14.500;2023-07-29T03:05:40;4.28;;;2.15;;
81160;SDS011;70637;48.514;14.500;2023-07-29T03:08:06;3.30;;;2.20;;
81160;SDS011;70637;48.514;14.500;2023-07-29T03:10:34;2.88;;;1.88;;
81160;SDS011;70637;48.514;14.500;2023-07-29T03:13:01;4.00;;;2.08;;
81160;SDS011;70637;48.514;14.500;2023-07-29T03:15:28;2.38;;;1.80;;
81160;SDS011;70637;48.514;14.500;2023-07-29T03:17:53;3.40;;;1.80;;
81160;SDS011;70637;48.514;14.500;2023-07-29T03:20:21;3.50;;;2.10;;
81160;SDS011;70637;48.514;14.500;2023-07-29T03:22:47;2.20;;;1.67;;
81160;SDS011;70637;48.514;14.500;2023-07-29T03:25:13;2.75;;;1.70;;
81160;SDS011;70637;48.514;14.500;2023-07-29T03:27:38;4.50;;;2.13;;
81160;SDS011;70637;48.514;14.500;2023-07-29T03:30:05;2.35;;;1.90;;
81160;SDS011;70637;48.514;14.500;2023-07-29T03:32:31;2.67;;;1.85;;
81160;SDS011;70637;48.514;14.500;2023-07-29T03:34:57;2.42;;;1.88;;
81160;SDS011;70637;48.514;14.500;2023-07-29T03:37:23;3.70;;;2.00;;
81160;SDS011;70637;48.514;14.500;2023-07-29T03:39:51;2.30;;;1.77;;
81160;SDS011;70637;48.514;14.500;2023-07-29T03:42:17;1.90;;;1.58;;
81160;SDS011;70637;48.514;14.500;2023-07-29T03:44:43;2.72;;;2.00;;
81160;SDS011;70637;48.514;14.500;2023-07-29T03:47:08;3.65;;;2.33;;
81160;SDS011;70637;48.514;14.500;2023-07-29T03:49:34;3.25;;;1.73;;
81160;SDS011;70637;48.514;14.500;2023-07-29T03:52:00;2.80;;;2.15;;
81160;SDS011;70637;48.514;14.500;2023-07-29T03:54:25;2.97;;;2.08;;
81160;SDS011;70637;48.514;14.500;2023-07-29T03:56:51;2.90;;;2.20;;
81160;SDS011;70637;48.514;14.500;2023-07-29T03:59:16;4.93;;;2.15;;
81160;SDS011;70637;48.514;14.500;2023-07-29T04:01:42;3.30;;;2.40;;
81160;SDS011;70637;48.514;14.500;2023-07-29T04:04:08;2.65;;;1.90;;
81160;SDS011;70637;48.514;14.500;2023-07-29T04:06:33;3.30;;;2.10;;
81160;SDS011;70637;48.514;14.500;2023-07-29T04:08:59;2.70;;;2.00;;
81160;SDS011;70637;48.514;14.500;2023-07-29T04:11:27;2.75;;;1.85;;
81160;SDS011;70637;48.514;14.500;2023-07-29T04:13:53;3.47;;;2.10;;
81160;SDS011;70637;48.514;14.500;2023-07-29T04:16:18;2.70;;;1.95;;
81160;SDS011;70637;48.514;14.500;2023-07-29T04:18:44;5.47;;;1.75;;
81160;SDS011;70637;48.514;14.500;2023-07-29T04:21:10;3.00;;;1.90;;
81160;SDS011;70637;48.514;14.500;2023-07-29T04:23:35;3.28;;;1.70;;
81160;SDS011;70637;48.514;14.500;2023-07-29T04:26:01;3.50;;;2.05;;
81160;SDS011;70637;48.514;14.500;2023-07-29T04:28:27;2.83;;;1.60;;
81160;SDS011;70637;48.514;14.500;2023-07-29T04:30:52;1.98;;;1.50;;
81160;SDS011;70637;48.514;14.500;2023-07-29T04:33:18;2.03;;;1.52;;
81160;SDS011;70637;48.514;14.500;2023-07-29T04:35:43;3.45;;;1.50;;
81160;SDS011;70637;48.514;14.500;2023-07-29T04:38:09;1.95;;;1.50;;
81160;SDS011;70637;48.514;14.500;2023-07-29T04:40:35;2.75;;;1.70;;
81160;SDS011;70637;48.514;14.500;2023-07-29T04:43:00;2.47;;;1.60;;
81160;SDS011;70637;48.514;14.500;2023-07-29T04:45:29;2.13;;;1.50;;
81160;SDS011;70637;48.514;14.500;2023-07-29T04:47:55;1.85;;;1.48;;
81160;SDS011;70637;48.514;14.500;2023-07-29T04:50:22;2.05;;;1.48;;
81160;SDS011;70637;48.514;14.500;2023-07-29T04:52:47;3.97;;;1.85;;
81160;SDS011;70637;48.514;14.500;2023-07-29T04:55:13;2.60;;;1.75;;
81160;SDS011;70637;48.514;14.500;2023-07-29T04:57:38;2.38;;;1.60;;
81160;SDS011;70637;48.514;14.500;2023-07-29T05:00:04;2.38;;;1.65;;
81160;SDS011;70637;48.514;14.500;2023-07-29T05:02:30;2.22;;;1.70;;
81160;SDS011;70637;48.514;14.500;2023-07-29T05:04:56;2.97;;;1.75;;
81160;SDS011;70637;48.514;14.500;2023-07-29T05:07:21;2.83;;;1.70;;
81160;SDS011;70637;48.514;14.500;2023-07-29T05:09:49;2.38;;;1.70;;
81160;SDS011;70637;48.514;14.500;2023-07-29T05:12:14;2.28;;;1.60;;
81160;SDS011;70637;48.514;14.500;2023-07-29T05:14:40;2.13;;;1.70;;
81160;SDS011;70637;48.514;14.500;2023-07-29T05:17:06;2.25;;;1.60;;
81160;SDS011;70637;48.514;14.500;2023-07-29T05:19:34;6.47;;;1.73;;
81160;SDS011;70637;48.514;14.500;2023-07-29T05:22:00;1.88;;;1.35;;
81160;SDS011;70637;48.514;14.500;2023-07-29T05:24:25;3.15;;;1.75;;
81160;SDS011;70637;48.514;14.500;2023-07-29T05:26:51;3.03;;;1.58;;
81160;SDS011;70637;48.514;14.500;2023-07-29T05:29:19;2.17;;;1.40;;
81160;SDS011;70637;48.514;14.500;2023-07-29T05:31:44;2.10;;;1.80;;
81160;SDS011;70637;48.514;14.500;2023-07-29T05:34:10;2.38;;;1.45;;
81160;SDS011;70637;48.514;14.500;2023-07-29T05:36:35;2.38;;;1.60;;
81160;SDS011;70637;48.514;14.500;2023-07-29T05:39:01;2.00;;;1.55;;
81160;SDS011;70637;48.514;14.500;2023-07-29T05:41:27;1.75;;;1.27;;
81160;SDS011;70637;48.514;14.500;2023-07-29T05:43:54;3.42;;;2.30;;
81160;SDS011;70637;48.514;14.500;2023-07-29T05:46:19;2.35;;;1.60;;
81160;SDS011;70637;48.514;14.500;2023-07-29T05:48:45;3.05;;;1.60;;
81160;SDS011;70637;48.514;14.500;2023-07-29T05:51:12;1.92;;;1.50;;
81160;SDS011;70637;48.514;14.500;2023-07-29T05:53:37;1.80;;;1.40;;
81160;SDS011;70637;48.514;14.500;2023-07-29T05:56:03;1.55;;;1.33;;
81160;SDS011;70637;48.514;14.500;2023-07-29T05:58:29;2.13;;;1.40;;
81160;SDS011;70637;48.514;14.500;2023-07-29T06:00:56;2.72;;;1.55;;
81160;SDS011;70637;48.514;14.500;2023-07-29T06:03:22;1.48;;;1.15;;
81160;SDS011;70637;48.514;14.500;2023-07-29T06:05:48;1.80;;;1.40;;
81160;SDS011;70637;48.514;14.500;2023-07-29T06:08:14;2.80;;;1.20;;
81160;SDS011;70637;48.514;14.500;2023-07-29T06:10:40;2.08;;;1.35;;
81160;SDS011;70637;48.514;14.500;2023-07-29T06:13:05;2.03;;;1.30;;
81160;SDS011;70637;48.514;14.500;2023-07-29T06:15:31;2.03;;;1.40;;
81160;SDS011;70637;48.514;14.500;2023-07-29T06:17:58;1.38;;;1.20;;
81160;SDS011;70637;48.514;14.500;2023-07-29T06:20:23;2.30;;;1.30;;
81160;SDS011;70637;48.514;14.500;2023-07-29T06:22:49;1.75;;;1.35;;
81160;SDS011;70637;48.514;14.500;2023-07-29T06:25:15;2.15;;;1.70;;
81160;SDS011;70637;48.514;14.500;2023-07-29T06:27:40;1.90;;;1.27;;
81160;SDS011;70637;48.514;14.500;2023-07-29T06:30:06;1.55;;;1.30;;
81160;SDS011;70637;48.514;14.500;2023-07-29T06:32:32;1.83;;;1.30;;
81160;SDS011;70637;48.514;14.500;2023-07-29T06:34:58;1.52;;;1.20;;
81160;SDS011;70637;48.514;14.500;2023-07-29T06:37:24;1.52;;;1.20;;
81160;SDS011;70637;48.514;14.500;2023-07-29T06:39:50;2.88;;;1.25;;
81160;SDS011;70637;48.514;14.500;2023-07-29T06:42:15;1.52;;;1.10;;
81160;SDS011;70637;48.514;14.500;2023-07-29T06:44:41;1.05;;;0.90;;
81160;SDS011;70637;48.514;14.500;2023-07-29T06:47:06;2.38;;;0.90;;
81160;SDS011;70637;48.514;14.500;2023-07-29T06:49:32;1.10;;;0.90;;
81160;SDS011;70637;48.514;14.500;2023-07-29T06:51:58;1.15;;;0.80;;
81160;SDS011;70637;48.514;14.500;2023-07-29T06:54:24;1.67;;;1.00;;
81160;SDS011;70637;48.514;14.500;2023-07-29T06:56:51;1.23;;;0.90;;
81160;SDS011;70637;48.514;14.500;2023-07-29T06:59:17;1.05;;;0.70;;
81160;SDS011;70637;48.514;14.500;2023-07-29T07:01:43;1.05;;;0.80;;
81160;SDS011;70637;48.514;14.500;2023-07-29T07:04:09;0.68;;;0.60;;
81160;SDS011;70637;48.514;14.500;2023-07-29T07:06:35;0.80;;;0.75;;
81160;SDS011;70637;48.514;14.500;2023-07-29T07:09:02;2.05;;;0.77;;
81160;SDS011;70637;48.514;14.500;2023-07-29T07:11:28;1.15;;;0.73;;
81160;SDS011;70637;48.514;14.500;2023-07-29T07:13:54;0.70;;;0.70;;
81160;SDS011;70637;48.514;14.500;2023-07-29T07:16:20;0.60;;;0.60;;
81160;SDS011;70637;48.514;14.500;2023-07-29T07:18:45;0.63;;;0.60;;
81160;SDS011;70637;48.514;14.500;2023-07-29T07:21:11;1.63;;;0.70;;
81160;SDS011;70637;48.514;14.500;2023-07-29T07:23:38;2.92;;;0.70;;
81160;SDS011;70637;48.514;14.500;2023-07-29T07:26:04;1.08;;;0.65;;
81160;SDS011;70637;48.514;14.500;2023-07-29T07:28:29;1.17;;;0.68;;
81160;SDS011;70637;48.514;14.500;2023-07-29T07:30:55;0.70;;;0.70;;
81160;SDS011;70637;48.514;14.500;2023-07-29T07:33:21;1.10;;;0.70;;
81160;SDS011;70637;48.514;14.500;2023-07-29T07:35:47;0.85;;;0.65;;
81160;SDS011;70637;48.514;14.500;2023-07-29T07:38:12;0.95;;;0.70;;
81160;SDS011;70637;48.514;14.500;2023-07-29T07:40:40;0.60;;;0.60;;
81160;SDS011;70637;48.514;14.500;2023-07-29T07:43:06;0.90;;;0.80;;
81160;SDS011;70637;48.514;14.500;2023-07-29T07:45:32;0.95;;;0.68;;
81160;SDS011;70637;48.514;14.500;2023-07-29T07:47:58;0.65;;;0.60;;
81160;SDS011;70637;48.514;14.500;2023-07-29T07:50:24;0.70;;;0.70;;
81160;SDS011;70637;48.514;14.500;2023-07-29T07:52:49;0.75;;;0.75;;
81160;SDS011;70637;48.514;14.500;2023-07-29T07:55:15;0.82;;;0.77;;
81160;SDS011;70637;48.514;14.500;2023-07-29T07:57:41;2.17;;;0.70;;
81160;SDS011;70637;48.514;14.500;2023-07-29T08:00:06;1.17;;;0.80;;
81160;SDS011;70637;48.514;14.500;2023-07-29T08:02:34;1.60;;;0.65;;
81160;SDS011;70637;48.514;14.500;2023-07-29T08:05:00;1.13;;;0.80;;
81160;SDS011;70637;48.514;14.500;2023-07-29T08:07:25;2.50;;;0.70;;
81160;SDS011;70637;48.514;14.500;2023-07-29T08:09:51;3.65;;;1.38;;
81160;SDS011;70637;48.514;14.500;2023-07-29T08:12:17;2.33;;;1.10;;
81160;SDS011;70637;48.514;14.500;2023-07-29T08:14:42;2.80;;;1.20;;
81160;SDS011;70637;48.514;14.500;2023-07-29T08:17:08;3.25;;;1.17;;
81160;SDS011;70637;48.514;14.500;2023-07-29T08:19:34;1.50;;;1.00;;
81160;SDS011;70637;48.514;14.500;2023-07-29T08:22:01;4.07;;;1.40;;
81160;SDS011;70637;48.514;14.500;2023-07-29T08:24:28;2.83;;;1.50;;
81160;SDS011;70637;48.514;14.500;2023-07-29T08:26:53;2.95;;;1.83;;
81160;SDS011;70637;48.514;14.500;2023-07-29T08:29:19;1.80;;;1.40;;
81160;SDS011;70637;48.514;14.500;2023-07-29T08:31:44;1.98;;;1.40;;
81160;SDS011;70637;48.514;14.500;2023-07-29T08:34:10;1.60;;;1.35;;
81160;SDS011;70637;48.514;14.500;2023-07-29T08:36:35;1.85;;;1.38;;
81160;SDS011;70637;48.514;14.500;2023-07-29T08:39:01;2.72;;;1.50;;
81160;SDS011;70637;48.514;14.500;2023-07-29T08:41:29;2.35;;;1.45;;
81160;SDS011;70637;48.514;14.500;2023-07-29T08:44:08;2.85;;;1.50;;
81160;SDS011;70637;48.514;14.500;2023-07-29T08:46:38;1.45;;;1.08;;
81160;SDS011;70637;48.514;14.500;2023-07-29T08:49:04;2.83;;;0.80;;
81160;SDS011;70637;48.514;14.500;2023-07-29T08:51:31;1.02;;;0.90;;
81160;SDS011;70637;48.514;14.500;2023-07-29T08:53:58;1.55;;;1.00;;
81160;SDS011;70637;48.514;14.500;2023-07-29T08:56:24;1.10;;;0.98;;
81160;SDS011;70637;48.514;14.500;2023-07-29T08:58:50;1.30;;;0.80;;
81160;SDS011;70637;48.514;14.500;2023-07-29T09:01:17;0.98;;;0.77;;
81160;SDS011;70637;48.514;14.500;2023-07-29T09:03:42;1.05;;;0.80;;
81160;SDS011;70637;48.514;14.500;2023-07-29T09:06:08;3.08;;;1.00;;
81160;SDS011;70637;48.514;14.500;2023-07-29T09:08:34;2.45;;;1.10;;
81160;SDS011;70637;48.514;14.500;2023-07-29T09:11:02;1.50;;;1.20;;
81160;SDS011;70637;48.514;14.500;2023-07-29T09:13:28;2.45;;;1.00;;
81160;SDS011;70637;48.514;14.500;2023-07-29T09:15:54;1.15;;;0.95;;
81160;SDS011;70637;48.514;14.500;2023-07-29T09:18:22;2.45;;;1.20;;
81160;SDS011;70637;48.514;14.500;2023-07-29T09:20:48;1.23;;;0.82;;
81160;SDS011;70637;48.514;14.500;2023-07-29T09:23:15;1.27;;;0.82;;
81160;SDS011;70637;48.514;14.500;2023-07-29T09:25:41;1.45;;;1.20;;
81160;SDS011;70637;48.514;14.500;2023-07-29T09:28:10;1.45;;;1.00;;
81160;SDS011;70637;48.514;14.500;2023-07-29T09:30:40;1.60;;;1.10;;
81160;SDS011;70637;48.514;14.500;2023-07-29T09:33:08;1.42;;;1.00;;
81160;SDS011;70637;48.514;14.500;2023-07-29T09:35:34;2.65;;;1.20;;
81160;SDS011;70637;48.514;14.500;2023-07-29T09:38:04;1.20;;;1.10;;
81160;SDS011;70637;48.514;14.500;2023-07-29T09:40:34;2.30;;;1.27;;
81160;SDS011;70637;48.514;14.500;2023-07-29T09:43:03;1.85;;;1.33;;
81160;SDS011;70637;48.514;14.500;2023-07-29T09:45:30;1.60;;;1.13;;
81160;SDS011;70637;48.514;14.500;2023-07-29T09:47:58;2.08;;;1.13;;
81160;SDS011;70637;48.514;14.500;2023-07-29T09:50:24;2.88;;;1.25;;
81160;SDS011;70637;48.514;14.500;2023-07-29T09:52:51;3.33;;;1.13;;
81160;SDS011;70637;48.514;14.500;2023-07-29T09:55:18;3.25;;;1.30;;
81160;SDS011;70637;48.514;14.500;2023-07-29T09:57:45;1.63;;;1.30;;
81160;SDS011;70637;48.514;14.500;2023-07-29T10:00:11;2.63;;;1.30;;
81160;SDS011;70637;48.514;14.500;2023-07-29T10:02:42;2.97;;;1.30;;
81160;SDS011;70637;48.514;14.500;2023-07-29T10:05:08;2.20;;;1.27;;
81160;SDS011;70637;48.514;14.500;2023-07-29T10:07:38;1.98;;;1.35;;
81160;SDS011;70637;48.514;14.500;2023-07-29T10:10:04;1.67;;;1.30;;
81160;SDS011;70637;48.514;14.500;2023-07-29T10:12:32;5.00;;;1.20;;
81160;SDS011;70637;48.514;14.500;2023-07-29T10:14:59;2.38;;;1.45;;
81160;SDS011;70637;48.514;14.500;2023-07-29T10:17:27;2.47;;;1.20;;
81160;SDS011;70637;48.514;14.500;2023-07-29T10:19:53;4.40;;;1.40;;
81160;SDS011;70637;48.514;14.500;2023-07-29T10:22:22;1.92;;;1.27;;
81160;SDS011;70637;48.514;14.500;2023-07-29T10:24:53;1.70;;;1.40;;
81160;SDS011;70637;48.514;14.500;2023-07-29T10:27:23;2.90;;;1.42;;
81160;SDS011;70637;48.514;14.500;2023-07-29T10:29:50;2.67;;;1.52;;
81160;SDS011;70637;48.514;14.500;2023-07-29T10:32:17;2.83;;;1.52;;
81160;SDS011;70637;48.514;14.500;2023-07-29T10:34:48;2.47;;;1.50;;
81160;SDS011;70637;48.514;14.500;2023-07-29T10:37:14;1.65;;;1.38;;
81160;SDS011;70637;48.514;14.500;2023-07-29T10:39:40;2.33;;;1.50;;
81160;SDS011;70637;48.514;14.500;2023-07-29T10:42:16;1.50;;;1.40;;
81160;SDS011;70637;48.514;14.500;2023-07-29T10:44:45;2.40;;;1.30;;
81160;SDS011;70637;48.514;14.500;2023-07-29T10:49:50;2.42;;;1.52;;
81160;SDS011;70637;48.514;14.500;2023-07-29T10:54:59;3.45;;;1.40;;
81160;SDS011;70637;48.514;14.500;2023-07-29T10:57:31;3.65;;;1.42;;
81160;SDS011;70637;48.514;14.500;2023-07-29T10:59:57;2.25;;;1.40;;
81160;SDS011;70637;48.514;14.500;2023-07-29T11:02:30;3.25;;;1.60;;
81160;SDS011;70637;48.514;14.500;2023-07-29T11:05:06;2.30;;;1.58;;
81160;SDS011;70637;48.514;14.500;2023-07-29T11:07:45;1.38;;;1.23;;
81160;SDS011;70637;48.514;14.500;2023-07-29T11:10:15;3.45;;;1.63;;
81160;SDS011;70637;48.514;14.500;2023-07-29T11:12:47;1.65;;;1.25;;
81160;SDS011;70637;48.514;14.500;2023-07-29T11:15:20;1.48;;;1.25;;
81160;SDS011;70637;48.514;14.500;2023-07-29T11:17:48;2.80;;;1.20;;
81160;SDS011;70637;48.514;14.500;2023-07-29T11:20:16;1.52;;;1.15;;
81160;SDS011;70637;48.514;14.500;2023-07-29T11:22:43;1.80;;;1.33;;
81160;SDS011;70637;48.514;14.500;2023-07-29T11:25:09;2.90;;;1.30;;
81160;SDS011;70637;48.514;14.500;2023-07-29T11:27:37;3.00;;;1.30;;
81160;SDS011;70637;48.514;14.500;2023-07-29T11:30:05;1.70;;;1.20;;
81160;SDS011;70637;48.514;14.500;2023-07-29T11:32:34;1.70;;;1.27;;
81160;SDS011;70637;48.514;14.500;2023-07-29T11:35:07;1.75;;;1.10;;
81160;SDS011;70637;48.514;14.500;2023-07-29T11:37:36;3.35;;;1.73;;
81160;SDS011;70637;48.514;14.500;2023-07-29T11:40:02;1.35;;;1.17;;
81160;SDS011;70637;48.514;14.500;2023-07-29T11:42:31;1.50;;;1.00;;
81160;SDS011;70637;48.514;14.500;2023-07-29T11:44:58;1.75;;;1.38;;
81160;SDS011;70637;48.514;14.500;2023-07-29T11:47:23;1.70;;;1.27;;
81160;SDS011;70637;48.514;14.500;2023-07-29T11:49:49;1.73;;;1.30;;
81160;SDS011;70637;48.514;14.500;2023-07-29T11:52:15;3.70;;;1.42;;
81160;SDS011;70637;48.514;14.500;2023-07-29T11:54:45;2.13;;;1.20;;
81160;SDS011;70637;48.514;14.500;2023-07-29T11:57:12;2.67;;;1.20;;
81160;SDS011;70637;48.514;14.500;2023-07-29T11:59:40;2.03;;;1.20;;
81160;SDS011;70637;48.514;14.500;2023-07-29T12:02:10;2.45;;;1.42;;
81160;SDS011;70637;48.514;14.500;2023-07-29T12:04:38;4.32;;;1.50;;
81160;SDS011;70637;48.514;14.500;2023-07-29T12:07:05;1.92;;;1.42;;
81160;SDS011;70637;48.514;14.500;2023-07-29T12:09:31;1.77;;;1.40;;
81160;SDS011;70637;48.514;14.500;2023-07-29T12:11:58;1.58;;;1.30;;
81160;SDS011;70637;48.514;14.500;2023-07-29T12:14:28;1.75;;;1.48;;
81160;SDS011;70637;48.514;14.500;2023-07-29T12:16:54;3.08;;;1.40;;
81160;SDS011;70637;48.514;14.500;2023-07-29T12:19:20;2.95;;;1.45;;
81160;SDS011;70637;48.514;14.500;2023-07-29T12:21:47;2.22;;;1.45;;
81160;SDS011;70637;48.514;14.500;2023-07-29T12:24:13;2.15;;;1.63;;
81160;SDS011;70637;48.514;14.500;2023-07-29T12:26:40;1.95;;;1.60;;
81160;SDS011;70637;48.514;14.500;2023-07-29T12:29:16;4.65;;;3.05;;
81160;SDS011;70637;48.514;14.500;2023-07-29T12:31:46;2.75;;;1.90;;
81160;SDS011;70637;48.514;14.500;2023-07-29T12:34:19;4.05;;;1.85;;
81160;SDS011;70637;48.514;14.500;2023-07-29T12:36:49;2.22;;;1.60;;
81160;SDS011;70637;48.514;14.500;2023-07-29T12:39:16;1.98;;;1.50;;
81160;SDS011;70637;48.514;14.500;2023-07-29T12:41:45;2.10;;;1.50;;
81160;SDS011;70637;48.514;14.500;2023-07-29T12:44:11;1.70;;;1.50;;
81160;SDS011;70637;48.514;14.500;2023-07-29T12:46:37;2.15;;;1.60;;
81160;SDS011;70637;48.514;14.500;2023-07-29T12:49:02;2.70;;;1.70;;
81160;SDS011;70637;48.514;14.500;2023-07-29T12:51:28;2.28;;;1.60;;
81160;SDS011;70637;48.514;14.500;2023-07-29T12:53:54;2.92;;;1.73;;
81160;SDS011;70637;48.514;14.500;2023-07-29T12:56:19;3.22;;;1.63;;
81160;SDS011;70637;48.514;14.500;2023-07-29T12:58:45;3.05;;;1.55;;
81160;SDS011;70637;48.514;14.500;2023-07-29T13:01:11;3.80;;;1.55;;
81160;SDS011;70637;48.514;14.500;2023-07-29T13:03:42;2.40;;;1.80;;
81160;SDS011;70637;48.514;14.500;2023-07-29T13:06:07;2.15;;;1.67;;
81160;SDS011;70637;48.514;14.500;2023-07-29T13:08:33;2.10;;;1.55;;
81160;SDS011;70637;48.514;14.500;2023-07-29T13:10:59;2.85;;;1.83;;
81160;SDS011;70637;48.514;14.500;2023-07-29T13:13:24;2.95;;;1.83;;
81160;SDS011;70637;48.514;14.500;2023-07-29T13:15:50;2.33;;;1.70;;
81160;SDS011;70637;48.514;14.500;2023-07-29T13:18:16;2.42;;;1.75;;
81160;SDS011;70637;48.514;14.500;2023-07-29T13:20:41;2.58;;;1.77;;
81160;SDS011;70637;48.514;14.500;2023-07-29T13:23:07;2.75;;;1.90;;
81160;SDS011;70637;48.514;14.500;2023-07-29T13:25:33;2.05;;;1.65;;
81160;SDS011;70637;48.514;14.500;2023-07-29T13:27:58;2.25;;;1.63;;
81160;SDS011;70637;48.514;14.500;2023-07-29T13:30:24;2.13;;;1.55;;
81160;SDS011;70637;48.514;14.500;2023-07-29T13:32:49;2.38;;;1.50;;
81160;SDS011;70637;48.514;14.500;2023-07-29T13:35:15;1.95;;;1.60;;
81160;SDS011;70637;48.514;14.500;2023-07-29T13:37:40;2.28;;;1.60;;
81160;SDS011;70637;48.514;14.500;2023-07-29T13:40:06;2.95;;;1.80;;
81160;SDS011;70637;48.514;14.500;2023-07-29T13:42:32;2.00;;;1.70;;
81160;SDS011;70637;48.514;14.500;2023-07-29T13:44:58;2.40;;;1.73;;
81160;SDS011;70637;48.514;14.500;2023-07-29T13:47:23;2.17;;;1.70;;
81160;SDS011;70637;48.514;14.500;2023-07-29T13:49:49;3.30;;;2.67;;
81160;SDS011;70637;48.514;14.500;2023-07-29T13:52:14;2.42;;;1.45;;
81160;SDS011;70637;48.514;14.500;2023-07-29T13:54:40;1.85;;;1.60;;
81160;SDS011;70637;48.514;14.500;2023-07-29T13:57:06;2.78;;;1.70;;
81160;SDS011;70637;48.514;14.500;2023-07-29T13:59:32;3.60;;;1.83;;
81160;SDS011;70637;48.514;14.500;2023-07-29T14:01:57;2.95;;;2.20;;
81160;SDS011;70637;48.514;14.500;2023-07-29T14:04:23;3.88;;;1.90;;
81160;SDS011;70637;48.514;14.500;2023-07-29T14:06:49;4.30;;;2.20;;
81160;SDS011;70637;48.514;14.500;2023-07-29T14:09:14;2.35;;;1.92;;
81160;SDS011;70637;48.514;14.500;2023-07-29T14:11:40;2.70;;;1.90;;
81160;SDS011;70637;48.514;14.500;2023-07-29T14:14:07;3.00;;;1.80;;
81160;SDS011;70637;48.514;14.500;2023-07-29T14:16:32;3.30;;;2.10;;
81160;SDS011;70637;48.514;14.500;2023-07-29T14:18:59;2.80;;;2.10;;
81160;SDS011;70637;48.514;14.500;2023-07-29T14:21:25;2.83;;;1.98;;
81160;SDS011;70637;48.514;14.500;2023-07-29T14:23:51;3.03;;;1.98;;
81160;SDS011;70637;48.514;14.500;2023-07-29T14:26:16;2.90;;;2.05;;
81160;SDS011;70637;48.514;14.500;2023-07-29T14:28:44;3.60;;;2.05;;
81160;SDS011;70637;48.514;14.500;2023-07-29T14:31:09;2.75;;;1.85;;
81160;SDS011;70637;48.514;14.500;2023-07-29T14:33:35;2.80;;;1.65;;
81160;SDS011;70637;48.514;14.500;2023-07-29T14:36:01;3.50;;;1.85;;
81160;SDS011;70637;48.514;14.500;2023-07-29T14:38:28;2.80;;;1.75;;
81160;SDS011;70637;48.514;14.500;2023-07-29T14:40:54;1.67;;;1.50;;
81160;SDS011;70637;48.514;14.500;2023-07-29T14:43:21;3.50;;;1.60;;
81160;SDS011;70637;48.514;14.500;2023-07-29T14:45:48;4.40;;;1.70;;
81160;SDS011;70637;48.514;14.500;2023-07-29T14:48:14;3.88;;;1.65;;